Kezdőlap
METAR-TAF:

METAR-TAF

Repülőterek :

Waterkloof, Dél-afrikai Köztársaság

Air Force Base Waterkloof

földrajzi szélesség: 25-50S, földrajzi hosszúság: 028-13E, magasság: 1498 m

Jelenlegi meteorológiai megfigyelések

A jelentés 1 órával és 1 perccel ezelõtt készült, 13:00 UTC
Északi szél 8 kt
Hőmérséklet
Légköri nyomás 1016 hPa

METAR: FAWK 241300Z AUTO 35008KT ///// Q1016

Idő: 16:01 (14:01 UTC)

Előrejelzés

A jelentés 5 órával és 1 perccel ezelõtt készült, 09:00 UTC
Az előrejelzés 24-én 10 óra UTC és 24-én 18 óra UTC között érvényes
Nyugat-északnyugati szél 8 kt
Látótávolság 10 km, vagy több
Szakadozott felhőzet 3000 lábon

TAF: FAWK 240900Z 2410/2418 29008KT 9999 BKN030 TX25/2413Z TN20/2418Z

Meteorológiai megfigyelések és előrejelzések több, mint 4000 repülőtéren (METAR és TAF jelentéseket).

A térképen piros és sárga pontok jelzik az elérhető meteorológiai állomásokat.

Mozgassa az egeret a pont fölött, hogy megjelenjen az állomás neve.

Azután kattintson az időjárási megfigyelések és előrejelzések megtekintéséhez.

A térkép megváltoztatása: kattintson a fekete keresztel jelölt zöld gombra ráközelítéshez, a vonallal jelölt zöld gombra távolításhoz, vagy a zöld nyilakra a szomszédos térképek eléréséhez.


METAR-TAF: